sensor_id;sensor_type;location;lat;lon;timestamp;pressure;altitude;pressure_sealevel;temperature;humidity
22104;BME280;11218;48.886;9.426;2023-03-21T00:00:53;98248.44;;;9.61;80.25
22104;BME280;11218;48.886;9.426;2023-03-21T00:03:21;98233.59;;;9.58;80.20
22104;BME280;11218;48.886;9.426;2023-03-21T00:05:51;98235.56;;;9.63;80.65
22104;BME280;11218;48.886;9.426;2023-03-21T00:08:20;98240.44;;;9.66;80.84
22104;BME280;11218;48.886;9.426;2023-03-21T00:10:56;98231.25;;;9.62;80.89
22104;BME280;11218;48.886;9.426;2023-03-21T00:13:25;98236.38;;;9.63;80.84
22104;BME280;11218;48.886;9.426;2023-03-21T00:15:54;98239.88;;;9.64;81.05
22104;BME280;11218;48.886;9.426;2023-03-21T00:18:42;98224.47;;;9.59;80.99
22104;BME280;11218;48.886;9.426;2023-03-21T00:21:14;98237.19;;;9.64;81.18
22104;BME280;11218;48.886;9.426;2023-03-21T00:24:03;98228.22;;;9.58;80.92
22104;BME280;11218;48.886;9.426;2023-03-21T00:26:33;98233.00;;;9.56;81.21
22104;BME280;11218;48.886;9.426;2023-03-21T00:29:01;98235.13;;;9.54;81.40
22104;BME280;11218;48.886;9.426;2023-03-21T00:31:29;98230.56;;;9.54;81.29
22104;BME280;11218;48.886;9.426;2023-03-21T00:33:57;98227.06;;;9.54;81.22
22104;BME280;11218;48.886;9.426;2023-03-21T00:36:27;98227.06;;;9.54;80.89
22104;BME280;11218;48.886;9.426;2023-03-21T00:38:55;98211.66;;;9.49;80.62
22104;BME280;11218;48.886;9.426;2023-03-21T00:41:23;98220.88;;;9.53;80.63
22104;BME280;11218;48.886;9.426;2023-03-21T00:44:09;98220.97;;;9.59;80.42
22104;BME280;11218;48.886;9.426;2023-03-21T00:46:39;98223.91;;;9.57;80.63
22104;BME280;11218;48.886;9.426;2023-03-21T00:49:22;98217.47;;;9.58;80.70
22104;BME280;11218;48.886;9.426;2023-03-21T00:51:50;98206.38;;;9.54;80.93
22104;BME280;11218;48.886;9.426;2023-03-21T00:54:22;98203.69;;;9.54;80.44
22104;BME280;11218;48.886;9.426;2023-03-21T00:56:51;98203.47;;;9.56;80.93
22104;BME280;11218;48.886;9.426;2023-03-21T00:59:21;98199.13;;;9.55;81.54
22104;BME280;11218;48.886;9.426;2023-03-21T01:01:49;98202.31;;;9.52;81.82
22104;BME280;11218;48.886;9.426;2023-03-21T01:04:20;98199.63;;;9.52;81.94
22104;BME280;11218;48.886;9.426;2023-03-21T01:06:53;98198.56;;;9.53;81.78
22104;BME280;11218;48.886;9.426;2023-03-21T01:09:23;98197.06;;;9.45;81.20
22104;BME280;11218;48.886;9.426;2023-03-21T01:11:52;98186.44;;;9.39;82.23
22104;BME280;11218;48.886;9.426;2023-03-21T01:14:22;98195.91;;;9.41;82.52
22104;BME280;11218;48.886;9.426;2023-03-21T01:16:51;98197.53;;;9.42;82.71
22104;BME280;11218;48.886;9.426;2023-03-21T01:19:22;98192.97;;;9.43;82.50
22104;BME280;11218;48.886;9.426;2023-03-21T01:22:10;98188.31;;;9.38;82.21
22104;BME280;11218;48.886;9.426;2023-03-21T01:24:38;98187.75;;;9.36;82.31
22104;BME280;11218;48.886;9.426;2023-03-21T01:27:19;98192.31;;;9.36;83.22
22104;BME280;11218;48.886;9.426;2023-03-21T01:29:49;98198.00;;;9.39;83.13
22104;BME280;11218;48.886;9.426;2023-03-21T01:32:17;98186.69;;;9.37;83.33
22104;BME280;11218;48.886;9.426;2023-03-21T01:34:45;98177.00;;;9.36;83.49
22104;BME280;11218;48.886;9.426;2023-03-21T01:37:13;98186.13;;;9.35;83.66
22104;BME280;11218;48.886;9.426;2023-03-21T01:39:43;98183.91;;;9.32;82.16
22104;BME280;11218;48.886;9.426;2023-03-21T01:42:12;98176.44;;;9.22;81.51
22104;BME280;11218;48.886;9.426;2023-03-21T01:44:56;98176.69;;;9.21;81.71
22104;BME280;11218;48.886;9.426;2023-03-21T01:47:24;98179.59;;;9.19;81.89
22104;BME280;11218;48.886;9.426;2023-03-21T01:49:55;98175.78;;;9.15;81.58
22104;BME280;11218;48.886;9.426;2023-03-21T01:52:26;98171.44;;;9.14;81.39
22104;BME280;11218;48.886;9.426;2023-03-21T01:55:06;98163.53;;;9.08;81.39
22104;BME280;11218;48.886;9.426;2023-03-21T01:57:41;98160.50;;;9.04;81.59
22104;BME280;11218;48.886;9.426;2023-03-21T02:00:33;98162.38;;;9.04;81.10
22104;BME280;11218;48.886;9.426;2023-03-21T02:03:05;98158.75;;;8.98;81.75
22104;BME280;11218;48.886;9.426;2023-03-21T02:05:49;98162.25;;;8.99;81.87
22104;BME280;11218;48.886;9.426;2023-03-21T02:08:18;98163.31;;;8.98;81.54
22104;BME280;11218;48.886;9.426;2023-03-21T02:10:59;98155.66;;;8.89;82.58
22104;BME280;11218;48.886;9.426;2023-03-21T02:13:27;98153.66;;;8.85;82.86
22104;BME280;11218;48.886;9.426;2023-03-21T02:15:58;98148.31;;;8.85;82.93
22104;BME280;11218;48.886;9.426;2023-03-21T02:18:35;98148.78;;;8.82;82.73
22104;BME280;11218;48.886;9.426;2023-03-21T02:21:16;98158.00;;;8.86;82.63
22104;BME280;11218;48.886;9.426;2023-03-21T02:27:07;98152.38;;;8.87;83.49
22104;BME280;11218;48.886;9.426;2023-03-21T02:33:49;98149.78;;;8.93;81.98
22104;BME280;11218;48.886;9.426;2023-03-21T02:36:27;98146.03;;;8.94;82.66
22104;BME280;11218;48.886;9.426;2023-03-21T02:39:07;98144.41;;;8.93;82.34
22104;BME280;11218;48.886;9.426;2023-03-21T02:41:46;98143.94;;;8.96;81.86
22104;BME280;11218;48.886;9.426;2023-03-21T02:44:18;98141.72;;;8.93;81.99
22104;BME280;11218;48.886;9.426;2023-03-21T02:46:51;98141.25;;;8.96;81.91
22104;BME280;11218;48.886;9.426;2023-03-21T02:49:34;98138.81;;;8.94;82.31
22104;BME280;11218;48.886;9.426;2023-03-21T02:52:08;98148.00;;;8.98;81.59
22104;BME280;11218;48.886;9.426;2023-03-21T02:54:50;98147.19;;;8.98;82.17
22104;BME280;11218;48.886;9.426;2023-03-21T02:57:19;98146.38;;;8.97;81.74
22104;BME280;11218;48.886;9.426;2023-03-21T02:59:53;98141.41;;;8.89;82.52
22104;BME280;11218;48.886;9.426;2023-03-21T03:02:30;98130.91;;;8.87;82.20
22104;BME280;11218;48.886;9.426;2023-03-21T03:04:58;98128.13;;;8.82;82.71
22104;BME280;11218;48.886;9.426;2023-03-21T03:07:38;98135.94;;;8.84;82.76
22104;BME280;11218;48.886;9.426;2023-03-21T03:10:24;98134.31;;;8.83;82.75
22104;BME280;11218;48.886;9.426;2023-03-21T03:13:02;98125.91;;;8.79;82.86
22104;BME280;11218;48.886;9.426;2023-03-21T03:15:40;98124.75;;;8.75;83.12
22104;BME280;11218;48.886;9.426;2023-03-21T03:18:19;98129.28;;;8.75;83.14
22104;BME280;11218;48.886;9.426;2023-03-21T03:20:59;98126.97;;;8.78;83.50
22104;BME280;11218;48.886;9.426;2023-03-21T03:23:35;98136.41;;;8.81;82.92
22104;BME280;11218;48.886;9.426;2023-03-21T03:26:11;98132.66;;;8.82;83.43
22104;BME280;11218;48.886;9.426;2023-03-21T03:28:45;98128.59;;;8.79;82.85
22104;BME280;11218;48.886;9.426;2023-03-21T03:31:20;98128.81;;;8.78;82.81
22104;BME280;11218;48.886;9.426;2023-03-21T03:33:54;98127.09;;;8.72;83.45
22104;BME280;11218;48.886;9.426;2023-03-21T03:36:25;98125.44;;;8.71;83.09
22104;BME280;11218;48.886;9.426;2023-03-21T03:39:28;98126.97;;;8.67;83.17
22104;BME280;11218;48.886;9.426;2023-03-21T03:42:05;98123.47;;;8.66;83.48
22104;BME280;11218;48.886;9.426;2023-03-21T03:44:53;98127.22;;;8.65;83.70
22104;BME280;11218;48.886;9.426;2023-03-21T03:47:23;98121.72;;;8.60;83.59
22104;BME280;11218;48.886;9.426;2023-03-21T03:50:04;98121.72;;;8.60;83.16
22104;BME280;11218;48.886;9.426;2023-03-21T03:52:38;98109.38;;;8.59;82.67
22104;BME280;11218;48.886;9.426;2023-03-21T03:55:20;98117.06;;;8.55;83.83
22104;BME280;11218;48.886;9.426;2023-03-21T03:57:51;98110.06;;;8.54;83.21
22104;BME280;11218;48.886;9.426;2023-03-21T04:00:19;98111.13;;;8.53;83.95
22104;BME280;11218;48.886;9.426;2023-03-21T04:02:47;98117.06;;;8.55;83.79
22104;BME280;11218;48.886;9.426;2023-03-21T04:05:16;98114.97;;;8.57;84.14
22104;BME280;11218;48.886;9.426;2023-03-21T04:07:47;98116.59;;;8.59;84.65
22104;BME280;11218;48.886;9.426;2023-03-21T04:10:16;98109.13;;;8.61;83.84
22104;BME280;11218;48.886;9.426;2023-03-21T04:12:45;98117.06;;;8.67;84.14
22104;BME280;11218;48.886;9.426;2023-03-21T04:15:14;98112.28;;;8.69;84.51
22104;BME280;11218;48.886;9.426;2023-03-21T04:17:42;98105.63;;;8.72;84.31
22104;BME280;11218;48.886;9.426;2023-03-21T04:20:11;98109.69;;;8.74;84.00
22104;BME280;11218;48.886;9.426;2023-03-21T04:22:55;98109.81;;;8.79;83.31
22104;BME280;11218;48.886;9.426;2023-03-21T04:25:23;98110.84;;;8.78;83.07
22104;BME280;11218;48.886;9.426;2023-03-21T04:27:59;98109.34;;;8.71;84.17
22104;BME280;11218;48.886;9.426;2023-03-21T04:30:29;98100.63;;;8.64;83.65
22104;BME280;11218;48.886;9.426;2023-03-21T04:32:59;98103.28;;;8.64;83.87
22104;BME280;11218;48.886;9.426;2023-03-21T04:35:27;98111.44;;;8.69;83.74
22104;BME280;11218;48.886;9.426;2023-03-21T04:37:55;98108.31;;;8.72;84.04
22104;BME280;11218;48.886;9.426;2023-03-21T04:40:23;98110.97;;;8.72;84.10
22104;BME280;11218;48.886;9.426;2023-03-21T04:42:51;98103.75;;;8.72;84.02
22104;BME280;11218;48.886;9.426;2023-03-21T04:45:19;98104.56;;;8.73;84.61
22104;BME280;11218;48.886;9.426;2023-03-21T04:47:49;98101.88;;;8.73;84.89
22104;BME280;11218;48.886;9.426;2023-03-21T04:50:17;98100.25;;;8.72;84.39
22104;BME280;11218;48.886;9.426;2023-03-21T04:52:45;98108.06;;;8.73;84.19
22104;BME280;11218;48.886;9.426;2023-03-21T04:55:12;98099.19;;;8.73;84.42
22104;BME280;11218;48.886;9.426;2023-03-21T04:57:41;98095.47;;;8.74;84.53
22104;BME280;11218;48.886;9.426;2023-03-21T05:00:10;98092.19;;;8.72;84.29
22104;BME280;11218;48.886;9.426;2023-03-21T05:02:40;98091.28;;;8.66;83.76
22104;BME280;11218;48.886;9.426;2023-03-21T05:05:10;98090.69;;;8.64;83.97
22104;BME280;11218;48.886;9.426;2023-03-21T05:07:39;98098.41;;;8.61;84.65
22104;BME280;11218;48.886;9.426;2023-03-21T05:10:10;98095.94;;;8.59;83.91
22104;BME280;11218;48.886;9.426;2023-03-21T05:12:38;98100.16;;;8.55;83.97
22104;BME280;11218;48.886;9.426;2023-03-21T05:15:07;98099.00;;;8.51;84.51
22104;BME280;11218;48.886;9.426;2023-03-21T05:17:36;98098.41;;;8.49;85.00
22104;BME280;11218;48.886;9.426;2023-03-21T05:20:04;98094.31;;;8.46;84.86
22104;BME280;11218;48.886;9.426;2023-03-21T05:22:36;98101.31;;;8.47;84.25
22104;BME280;11218;48.886;9.426;2023-03-21T05:25:08;98100.75;;;8.45;85.01
22104;BME280;11218;48.886;9.426;2023-03-21T05:27:37;98098.88;;;8.46;84.82
22104;BME280;11218;48.886;9.426;2023-03-21T05:30:14;98105.41;;;8.50;84.78
22104;BME280;11218;48.886;9.426;2023-03-21T05:32:42;98098.16;;;8.50;84.88
22104;BME280;11218;48.886;9.426;2023-03-21T05:35:11;98105.16;;;8.51;84.36
22104;BME280;11218;48.886;9.426;2023-03-21T05:37:40;98105.06;;;8.46;84.35
22104;BME280;11218;48.886;9.426;2023-03-21T05:40:09;98104.81;;;8.48;84.84
22104;BME280;11218;48.886;9.426;2023-03-21T05:42:37;98109.59;;;8.46;84.61
22104;BME280;11218;48.886;9.426;2023-03-21T05:45:06;98118.59;;;8.51;84.20
22104;BME280;11218;48.886;9.426;2023-03-21T05:47:34;98113.81;;;8.53;84.58
22104;BME280;11218;48.886;9.426;2023-03-21T05:50:02;98121.16;;;8.58;84.31
22104;BME280;11218;48.886;9.426;2023-03-21T05:52:30;98117.75;;;8.63;84.19
22104;BME280;11218;48.886;9.426;2023-03-21T05:54:59;98123.81;;;8.70;83.00
22104;BME280;11218;48.886;9.426;2023-03-21T05:57:27;98108.66;;;8.64;83.51
22104;BME280;11218;48.886;9.426;2023-03-21T05:59:55;98112.63;;;8.61;84.26
22104;BME280;11218;48.886;9.426;2023-03-21T06:02:23;98114.25;;;8.62;84.10
22104;BME280;11218;48.886;9.426;2023-03-21T06:04:51;98112.16;;;8.64;84.66
22104;BME280;11218;48.886;9.426;2023-03-21T06:07:19;98114.03;;;8.64;84.30
22104;BME280;11218;48.886;9.426;2023-03-21T06:09:47;98112.75;;;8.66;84.24
22104;BME280;11218;48.886;9.426;2023-03-21T06:12:16;98109.59;;;8.69;84.40
22104;BME280;11218;48.886;9.426;2023-03-21T06:14:47;98105.38;;;8.73;84.56
22104;BME280;11218;48.886;9.426;2023-03-21T06:17:15;98117.28;;;8.77;83.83
22104;BME280;11218;48.886;9.426;2023-03-21T06:19:43;98107.94;;;8.80;83.80
22104;BME280;11218;48.886;9.426;2023-03-21T06:22:11;98112.00;;;8.82;84.09
22104;BME280;11218;48.886;9.426;2023-03-21T06:24:39;98108.63;;;8.87;84.27
22104;BME280;11218;48.886;9.426;2023-03-21T06:27:07;98112.47;;;8.91;83.83
22104;BME280;11218;48.886;9.426;2023-03-21T06:29:37;98115.47;;;8.95;83.45
22104;BME280;11218;48.886;9.426;2023-03-21T06:32:05;98115.81;;;8.98;83.33
22104;BME280;11218;48.886;9.426;2023-03-21T06:34:34;98119.41;;;9.04;82.96
22104;BME280;11218;48.886;9.426;2023-03-21T06:37:04;98118.69;;;9.08;83.02
22104;BME280;11218;48.886;9.426;2023-03-21T06:39:33;98116.59;;;9.10;82.77
22104;BME280;11218;48.886;9.426;2023-03-21T06:42:03;98119.38;;;9.15;82.55
22104;BME280;11218;48.886;9.426;2023-03-21T06:44:31;98123.22;;;9.19;82.37
22104;BME280;11218;48.886;9.426;2023-03-21T06:47:00;98123.31;;;9.25;82.16
22104;BME280;11218;48.886;9.426;2023-03-21T06:49:29;98125.63;;;9.33;82.11
22104;BME280;11218;48.886;9.426;2023-03-21T06:51:57;98112.06;;;9.39;81.94
22104;BME280;11218;48.886;9.426;2023-03-21T06:54:28;98121.84;;;9.45;81.74
22104;BME280;11218;48.886;9.426;2023-03-21T06:56:56;98110.59;;;9.48;81.34
22104;BME280;11218;48.886;9.426;2023-03-21T06:59:25;98111.28;;;9.55;81.25
22104;BME280;11218;48.886;9.426;2023-03-21T07:01:54;98116.41;;;9.57;80.92
22104;BME280;11218;48.886;9.426;2023-03-21T07:04:25;98121.06;;;9.62;80.80
22104;BME280;11218;48.886;9.426;2023-03-21T07:06:54;98123.00;;;9.66;80.64
22104;BME280;11218;48.886;9.426;2023-03-21T07:09:24;98130.34;;;9.71;80.34
22104;BME280;11218;48.886;9.426;2023-03-21T07:11:54;98124.00;;;9.77;79.95
22104;BME280;11218;48.886;9.426;2023-03-21T07:14:24;98121.41;;;9.82;79.65
22104;BME280;11218;48.886;9.426;2023-03-21T07:16:52;98114.47;;;9.86;79.16
22104;BME280;11218;48.886;9.426;2023-03-21T07:19:20;98113.75;;;9.91;78.92
22104;BME280;11218;48.886;9.426;2023-03-21T07:21:51;98124.34;;;9.97;78.74
22104;BME280;11218;48.886;9.426;2023-03-21T07:24:19;98109.69;;;10.05;77.74
22104;BME280;11218;48.886;9.426;2023-03-21T07:26:48;98114.31;;;10.09;78.44
22104;BME280;11218;48.886;9.426;2023-03-21T07:29:16;98112.66;;;10.20;77.70
22104;BME280;11218;48.886;9.426;2023-03-21T07:31:47;98104.78;;;10.18;77.50
22104;BME280;11218;48.886;9.426;2023-03-21T07:34:15;98109.63;;;10.33;76.61
22104;BME280;11218;48.886;9.426;2023-03-21T07:36:45;98111.06;;;10.41;76.34
22104;BME280;11218;48.886;9.426;2023-03-21T07:39:14;98117.56;;;10.45;76.59
22104;BME280;11218;48.886;9.426;2023-03-21T07:41:43;98111.03;;;10.58;76.64
22104;BME280;11218;48.886;9.426;2023-03-21T07:44:11;98108.94;;;10.81;75.91
22104;BME280;11218;48.886;9.426;2023-03-21T07:46:40;98110.50;;;10.99;74.88
22104;BME280;11218;48.886;9.426;2023-03-21T07:49:10;98109.41;;;11.22;73.85
22104;BME280;11218;48.886;9.426;2023-03-21T07:51:38;98112.84;;;11.39;73.28
22104;BME280;11218;48.886;9.426;2023-03-21T07:54:06;98117.22;;;11.45;72.12
22104;BME280;11218;48.886;9.426;2023-03-21T07:56:36;98115.03;;;11.42;71.91
22104;BME280;11218;48.886;9.426;2023-03-21T07:59:05;98114.84;;;11.49;71.41
22104;BME280;11218;48.886;9.426;2023-03-21T08:01:33;98114.88;;;11.54;71.41
22104;BME280;11218;48.886;9.426;2023-03-21T08:04:02;98109.84;;;11.63;70.83
22104;BME280;11218;48.886;9.426;2023-03-21T08:06:30;98106.69;;;11.71;70.64
22104;BME280;11218;48.886;9.426;2023-03-21T08:08:58;98107.56;;;11.76;70.29
22104;BME280;11218;48.886;9.426;2023-03-21T08:11:26;98103.91;;;11.88;70.51
22104;BME280;11218;48.886;9.426;2023-03-21T08:14:03;98111.31;;;12.02;70.23
22104;BME280;11218;48.886;9.426;2023-03-21T08:16:31;98108.94;;;12.11;69.35
22104;BME280;11218;48.886;9.426;2023-03-21T08:18:59;98114.16;;;12.23;68.77
22104;BME280;11218;48.886;9.426;2023-03-21T08:21:27;98111.84;;;12.36;68.83
22104;BME280;11218;48.886;9.426;2023-03-21T08:23:57;98111.66;;;12.48;67.58
22104;BME280;11218;48.886;9.426;2023-03-21T08:26:28;98110.66;;;12.64;67.30
22104;BME280;11218;48.886;9.426;2023-03-21T08:28:59;98105.59;;;12.78;66.40
22104;BME280;11218;48.886;9.426;2023-03-21T08:31:27;98106.72;;;12.87;66.71
22104;BME280;11218;48.886;9.426;2023-03-21T08:33:56;98107.56;;;12.93;66.61
22104;BME280;11218;48.886;9.426;2023-03-21T08:36:24;98101.66;;;13.01;66.43
22104;BME280;11218;48.886;9.426;2023-03-21T08:38:52;98099.47;;;12.98;64.50
22104;BME280;11218;48.886;9.426;2023-03-21T08:41:22;98101.94;;;13.04;63.95
22104;BME280;11218;48.886;9.426;2023-03-21T08:43:51;98091.25;;;13.25;61.82
22104;BME280;11218;48.886;9.426;2023-03-21T08:46:21;98098.31;;;13.36;61.21
22104;BME280;11218;48.886;9.426;2023-03-21T08:48:49;98088.59;;;13.50;61.29
22104;BME280;11218;48.886;9.426;2023-03-21T08:51:18;98089.72;;;13.79;60.11
22104;BME280;11218;48.886;9.426;2023-03-21T08:53:48;98085.94;;;13.91;59.42
22104;BME280;11218;48.886;9.426;2023-03-21T08:56:16;98088.09;;;14.09;59.11
22104;BME280;11218;48.886;9.426;2023-03-21T08:58:44;98082.13;;;14.27;58.19
22104;BME280;11218;48.886;9.426;2023-03-21T09:01:40;98076.69;;;14.48;56.90
22104;BME280;11218;48.886;9.426;2023-03-21T09:04:11;98081.81;;;14.69;55.90
22104;BME280;11218;48.886;9.426;2023-03-21T09:06:40;98075.28;;;14.75;54.96
22104;BME280;11218;48.886;9.426;2023-03-21T09:09:11;98073.31;;;14.91;53.78
22104;BME280;11218;48.886;9.426;2023-03-21T09:11:40;98078.41;;;15.08;53.75
22104;BME280;11218;48.886;9.426;2023-03-21T09:14:08;98072.66;;;15.20;52.20
22104;BME280;11218;48.886;9.426;2023-03-21T09:16:40;98071.84;;;15.14;52.72
22104;BME280;11218;48.886;9.426;2023-03-21T09:19:08;98079.41;;;15.22;52.84
22104;BME280;11218;48.886;9.426;2023-03-21T09:21:37;98073.38;;;15.35;52.07
22104;BME280;11218;48.886;9.426;2023-03-21T09:24:05;98080.94;;;15.43;52.13
22104;BME280;11218;48.886;9.426;2023-03-21T09:26:33;98083.31;;;15.55;51.75
22104;BME280;11218;48.886;9.426;2023-03-21T09:29:02;98072.06;;;15.72;50.43
22104;BME280;11218;48.886;9.426;2023-03-21T09:31:31;98072.53;;;15.84;49.00
22104;BME280;11218;48.886;9.426;2023-03-21T09:34:03;98079.38;;;15.76;48.60
22104;BME280;11218;48.886;9.426;2023-03-21T09:36:32;98077.19;;;15.78;49.02
22104;BME280;11218;48.886;9.426;2023-03-21T09:39:03;98076.91;;;15.80;49.13
22104;BME280;11218;48.886;9.426;2023-03-21T09:41:42;98072.81;;;15.83;49.30
22104;BME280;11218;48.886;9.426;2023-03-21T09:44:30;98070.88;;;15.88;49.59
22104;BME280;11218;48.886;9.426;2023-03-21T09:47:09;98078.66;;;16.00;49.91
22104;BME280;11218;48.886;9.426;2023-03-21T09:49:44;98066.72;;;16.01;48.13
22104;BME280;11218;48.886;9.426;2023-03-21T09:52:18;98069.72;;;15.99;48.13
22104;BME280;11218;48.886;9.426;2023-03-21T09:54:48;98058.66;;;15.91;48.28
22104;BME280;11218;48.886;9.426;2023-03-21T09:57:25;98062.09;;;16.01;49.35
22104;BME280;11218;48.886;9.426;2023-03-21T09:59:58;98057.47;;;16.02;49.11
22104;BME280;11218;48.886;9.426;2023-03-21T10:02:36;98063.44;;;16.04;48.81
22104;BME280;11218;48.886;9.426;2023-03-21T10:05:15;98063.19;;;16.00;48.21
22104;BME280;11218;48.886;9.426;2023-03-21T10:07:46;98053.69;;;15.98;48.42
22104;BME280;11218;48.886;9.426;2023-03-21T10:10:19;98052.00;;;16.07;48.40
22104;BME280;11218;48.886;9.426;2023-03-21T10:12:52;98056.56;;;16.12;47.47
22104;BME280;11218;48.886;9.426;2023-03-21T10:15:22;98050.53;;;16.20;47.74
22104;BME280;11218;48.886;9.426;2023-03-21T10:17:54;98046.66;;;16.26;48.19
22104;BME280;11218;48.886;9.426;2023-03-21T10:20:26;98044.06;;;16.39;45.71
22104;BME280;11218;48.886;9.426;2023-03-21T10:22:57;98037.38;;;16.32;46.72
22104;BME280;11218;48.886;9.426;2023-03-21T10:25:31;98035.56;;;16.46;46.15
22104;BME280;11218;48.886;9.426;2023-03-21T10:28:00;98029.38;;;16.40;45.21
22104;BME280;11218;48.886;9.426;2023-03-21T10:30:36;98028.16;;;16.52;46.44
22104;BME280;11218;48.886;9.426;2023-03-21T10:33:07;98025.06;;;16.63;45.46
22104;BME280;11218;48.886;9.426;2023-03-21T10:35:41;98025.63;;;16.60;46.02
22104;BME280;11218;48.886;9.426;2023-03-21T10:38:14;98021.78;;;16.66;45.48
22104;BME280;11218;48.886;9.426;2023-03-21T10:40:44;98016.28;;;16.71;46.02
22104;BME280;11218;48.886;9.426;2023-03-21T10:43:18;98009.41;;;16.79;45.85
22104;BME280;11218;48.886;9.426;2023-03-21T10:45:53;98010.16;;;16.85;45.77
22104;BME280;11218;48.886;9.426;2023-03-21T10:48:23;98012.09;;;17.03;42.91
22104;BME280;11218;48.886;9.426;2023-03-21T10:50:53;98010.91;;;16.90;44.74
22104;BME280;11218;48.886;9.426;2023-03-21T10:53:28;98014.66;;;16.94;45.80
22104;BME280;11218;48.886;9.426;2023-03-21T10:55:58;98011.66;;;17.15;45.49
22104;BME280;11218;48.886;9.426;2023-03-21T10:58:28;97999.44;;;17.31;44.80
22104;BME280;11218;48.886;9.426;2023-03-21T11:01:01;98010.78;;;17.38;44.07
22104;BME280;11218;48.886;9.426;2023-03-21T11:03:31;98001.28;;;17.35;43.56
22104;BME280;11218;48.886;9.426;2023-03-21T11:06:04;98003.94;;;17.40;44.17
22104;BME280;11218;48.886;9.426;2023-03-21T11:08:37;98015.41;;;17.19;43.38
22104;BME280;11218;48.886;9.426;2023-03-21T11:11:08;98018.13;;;17.19;43.86
22104;BME280;11218;48.886;9.426;2023-03-21T11:13:40;98011.28;;;17.21;42.76
22104;BME280;11218;48.886;9.426;2023-03-21T11:16:09;98014.00;;;17.21;42.25
22104;BME280;11218;48.886;9.426;2023-03-21T11:18:41;98010.72;;;17.05;42.91
22104;BME280;11218;48.886;9.426;2023-03-21T11:21:12;98007.75;;;17.02;41.80
22104;BME280;11218;48.886;9.426;2023-03-21T11:23:42;98002.16;;;16.93;43.25
22104;BME280;11218;48.886;9.426;2023-03-21T11:26:18;97999.91;;;17.00;43.43
22104;BME280;11218;48.886;9.426;2023-03-21T11:28:49;97993.88;;;17.03;43.20
22104;BME280;11218;48.886;9.426;2023-03-21T11:31:18;97993.88;;;17.03;42.55
22104;BME280;11218;48.886;9.426;2023-03-21T11:33:50;97995.63;;;17.13;42.21
22104;BME280;11218;48.886;9.426;2023-03-21T11:36:34;97994.53;;;16.95;42.73
22104;BME280;11218;48.886;9.426;2023-03-21T11:39:23;97989.88;;;16.96;42.19
22104;BME280;11218;48.886;9.426;2023-03-21T11:41:54;97986.66;;;16.94;42.43
22104;BME280;11218;48.886;9.426;2023-03-21T11:44:25;97986.19;;;16.87;42.53
22104;BME280;11218;48.886;9.426;2023-03-21T11:46:54;97983.78;;;16.85;44.03
22104;BME280;11218;48.886;9.426;2023-03-21T11:49:22;97983.09;;;16.74;44.70
22104;BME280;11218;48.886;9.426;2023-03-21T11:52:03;97977.44;;;16.71;44.97
22104;BME280;11218;48.886;9.426;2023-03-21T11:54:39;97972.81;;;16.71;45.24
22104;BME280;11218;48.886;9.426;2023-03-21T11:57:23;97969.03;;;16.67;45.49
22104;BME280;11218;48.886;9.426;2023-03-21T11:59:57;97972.34;;;16.64;45.86
22104;BME280;11218;48.886;9.426;2023-03-21T12:05:31;97959.19;;;16.48;45.55
22104;BME280;11218;48.886;9.426;2023-03-21T12:08:08;97948.25;;;16.34;46.53
22104;BME280;11218;48.886;9.426;2023-03-21T12:10:49;97949.53;;;16.36;46.99
22104;BME280;11218;48.886;9.426;2023-03-21T12:13:34;97944.41;;;16.35;47.24
22104;BME280;11218;48.886;9.426;2023-03-21T12:16:18;97944.41;;;16.35;46.43
22104;BME280;11218;48.886;9.426;2023-03-21T12:19:07;97935.28;;;16.26;47.09
22104;BME280;11218;48.886;9.426;2023-03-21T12:21:45;97920.72;;;16.17;46.07
22104;BME280;11218;48.886;9.426;2023-03-21T12:24:19;97939.84;;;16.06;47.52
22104;BME280;11218;48.886;9.426;2023-03-21T12:26:56;97936.56;;;16.09;46.53
22104;BME280;11218;48.886;9.426;2023-03-21T12:32:44;97928.81;;;15.98;47.52
22104;BME280;11218;48.886;9.426;2023-03-21T12:35:31;97920.72;;;15.93;47.93
22104;BME280;11218;48.886;9.426;2023-03-21T12:38:14;97918.03;;;15.88;48.46
22104;BME280;11218;48.886;9.426;2023-03-21T12:41:03;97917.72;;;15.94;47.57
22104;BME280;11218;48.886;9.426;2023-03-21T12:43:41;97908.84;;;15.84;47.72
22104;BME280;11218;48.886;9.426;2023-03-21T12:46:15;97916.28;;;15.73;48.53
22104;BME280;11218;48.886;9.426;2023-03-21T12:48:48;97907.00;;;15.79;48.28
22104;BME280;11218;48.886;9.426;2023-03-21T12:51:21;97914.91;;;15.75;49.04
22104;BME280;11218;48.886;9.426;2023-03-21T12:54:06;97907.03;;;15.74;48.87
22104;BME280;11218;48.886;9.426;2023-03-21T12:56:44;97910.03;;;15.72;49.54
22104;BME280;11218;48.886;9.426;2023-03-21T12:59:22;97911.66;;;15.73;49.45
22104;BME280;11218;48.886;9.426;2023-03-21T13:01:56;97900.47;;;15.80;49.28
22104;BME280;11218;48.886;9.426;2023-03-21T13:04:34;97913.81;;;15.76;48.62
22104;BME280;11218;48.886;9.426;2023-03-21T13:07:07;97904.00;;;15.81;48.35
22104;BME280;11218;48.886;9.426;2023-03-21T13:09:38;97907.34;;;15.72;48.76
22104;BME280;11218;48.886;9.426;2023-03-21T13:12:20;97898.94;;;15.69;49.10
22104;BME280;11218;48.886;9.426;2023-03-21T13:15:04;97895.91;;;15.75;49.40
22104;BME280;11218;48.886;9.426;2023-03-21T13:17:53;97892.84;;;15.82;48.21
22104;BME280;11218;48.886;9.426;2023-03-21T13:20:29;97892.94;;;15.72;49.08
22104;BME280;11218;48.886;9.426;2023-03-21T13:23:03;97884.34;;;15.65;49.13
22104;BME280;11218;48.886;9.426;2023-03-21T13:25:32;97879.44;;;15.67;49.00
22104;BME280;11218;48.886;9.426;2023-03-21T13:28:19;97876.66;;;15.72;49.82
22104;BME280;11218;48.886;9.426;2023-03-21T13:30:48;97886.28;;;15.88;48.95
22104;BME280;11218;48.886;9.426;2023-03-21T13:33:21;97874.84;;;15.91;49.32
22104;BME280;11218;48.886;9.426;2023-03-21T13:36:00;97879.94;;;15.98;49.28
22104;BME280;11218;48.886;9.426;2023-03-21T13:38:34;97868.25;;;15.97;49.28
22104;BME280;11218;48.886;9.426;2023-03-21T13:41:07;97868.03;;;15.94;49.77
22104;BME280;11218;48.886;9.426;2023-03-21T13:43:43;97865.78;;;16.01;48.69
22104;BME280;11218;48.886;9.426;2023-03-21T13:46:13;97860.88;;;16.03;49.34